Time;durP1;ratioP1;P1;durP2;ratioP2;P2;SDS_P1;SDS_P2;PMS_P1;PMS_P2;Temp;Humidity;BMP_temperature;BMP_pressure;BME280_temperature;BME280_humidity;BME280_pressure;Samples;Min_cycle;Max_cycle;Signal;HPM_P1;HPM_P2
2023/07/08 00:00:27;;;;;;;5.55;4.45;;;17.50;99.90;;;;;;5012439;28;20056;-71
2023/07/08 00:02:53;;;;;;;6.30;4.93;;;17.40;99.90;;;;;;5012559;28;20088;-71
2023/07/08 00:05:21;;;;;;;5.40;4.18;;;17.40;99.90;;;;;;5012471;28;20459;-71
2023/07/08 00:07:47;;;;;;;4.95;3.97;;;17.40;99.90;;;;;;5012687;28;20056;-71
2023/07/08 00:10:15;;;;;;;5.72;4.57;;;17.30;99.90;;;;;;5012454;28;20473;-71
2023/07/08 00:12:43;;;;;;;5.35;4.55;;;17.30;99.90;;;;;;5012782;28;20149;-71
2023/07/08 00:15:09;;;;;;;6.18;4.45;;;17.30;99.90;;;;;;5012679;28;20038;-71
2023/07/08 00:17:35;;;;;;;6.22;4.30;;;17.20;99.90;;;;;;5013232;28;20070;-71
2023/07/08 00:20:01;;;;;;;8.00;4.80;;;17.20;99.90;;;;;;4999330;28;20060;-71
2023/07/08 00:22:26;;;;;;;9.65;4.68;;;17.20;99.90;;;;;;5016151;28;20081;-71
2023/07/08 00:24:52;;;;;;;4.80;4.22;;;17.20;99.90;;;;;;5017000;28;20057;-70
2023/07/08 00:27:18;;;;;;;4.20;3.80;;;17.10;99.90;;;;;;5016117;28;20042;-70
2023/07/08 00:29:43;;;;;;;5.53;4.05;;;17.10;99.90;;;;;;5016049;28;20096;-71
2023/07/08 00:32:15;;;;;;;6.78;4.88;;;17.00;99.90;;;;;;5015887;28;20049;-70
2023/07/08 00:34:41;;;;;;;5.47;4.57;;;17.00;99.90;;;;;;4999142;28;20095;-70
2023/07/08 00:37:13;;;;;;;5.20;4.55;;;17.00;99.90;;;;;;5015946;28;20046;-70
2023/07/08 00:39:40;;;;;;;6.00;4.68;;;16.90;99.90;;;;;;5015761;28;20133;-71
2023/07/08 00:42:22;;;;;;;5.55;4.30;;;17.00;99.90;;;;;;5016209;28;20052;-71
2023/07/08 00:44:48;;;;;;;5.60;4.43;;;16.90;99.90;;;;;;5016318;28;20141;-70
2023/07/08 00:47:15;;;;;;;5.20;4.55;;;16.90;99.90;;;;;;5015766;28;20513;-70
2023/07/08 00:49:49;;;;;;;7.90;4.30;;;16.90;99.90;;;;;;5015542;28;20049;-70
2023/07/08 00:52:23;;;;;;;6.18;4.70;;;16.80;99.90;;;;;;5015727;28;20117;-71
2023/07/08 00:54:50;;;;;;;7.20;5.28;;;16.80;99.90;;;;;;5015461;28;20200;-70
2023/07/08 00:57:16;;;;;;;5.05;4.63;;;16.70;99.90;;;;;;5015555;28;20056;-70
2023/07/08 00:59:48;;;;;;;5.45;4.15;;;16.70;99.90;;;;;;4981583;28;20049;-70
2023/07/08 01:02:18;;;;;;;6.43;4.80;;;16.70;99.90;;;;;;5015528;28;20050;-70
2023/07/08 01:04:55;;;;;;;5.53;4.80;;;16.70;99.90;;;;;;4998149;28;20591;-70
2023/07/08 01:07:22;;;;;;;6.95;5.07;;;16.70;99.90;;;;;;4997973;28;20050;-70
2023/07/08 01:09:52;;;;;;;6.95;4.22;;;16.60;99.90;;;;;;5014912;28;20444;-70
2023/07/08 01:12:35;;;;;;;7.18;4.93;;;16.60;99.90;;;;;;5015305;28;20054;-70
2023/07/08 01:15:02;;;;;;;4.68;4.28;;;16.60;99.90;;;;;;5015218;28;20100;-71
2023/07/08 01:17:32;;;;;;;6.30;4.35;;;16.60;99.90;;;;;;5015211;28;20475;-70
2023/07/08 01:19:59;;;;;;;7.07;4.65;;;16.60;99.90;;;;;;5015404;28;20506;-71
2023/07/08 01:22:25;;;;;;;5.95;5.00;;;16.60;99.90;;;;;;5015223;28;20050;-70
2023/07/08 01:24:50;;;;;;;5.22;4.43;;;16.50;99.90;;;;;;5014971;28;20053;-71
2023/07/08 01:27:19;;;;;;;7.03;5.35;;;16.50;99.90;;;;;;5015053;28;20096;-71
2023/07/08 01:29:46;;;;;;;7.63;4.82;;;16.50;99.90;;;;;;4996564;28;20054;-71
2023/07/08 01:32:17;;;;;;;6.97;4.47;;;16.40;99.90;;;;;;4997824;28;20050;-70
2023/07/08 01:34:59;;;;;;;7.65;4.57;;;16.40;99.90;;;;;;5015203;28;20042;-70
2023/07/08 01:37:33;;;;;;;7.53;4.85;;;16.40;99.90;;;;;;5014704;28;20430;-71
2023/07/08 01:40:29;;;;;;;7.50;4.65;;;16.30;99.90;;;;;;5014861;28;20050;-70
2023/07/08 01:42:56;;;;;;;6.32;4.82;;;16.30;99.90;;;;;;5014723;28;20444;-70
2023/07/08 01:45:26;;;;;;;5.22;4.35;;;16.30;99.90;;;;;;5014959;28;20053;-71
2023/07/08 01:47:56;;;;;;;6.30;4.70;;;16.30;99.90;;;;;;5014584;28;20054;-70
2023/07/08 01:50:24;;;;;;;7.88;4.88;;;16.30;99.90;;;;;;5014646;28;20129;-71
2023/07/08 01:52:52;;;;;;;7.28;4.95;;;16.30;99.90;;;;;;5014548;28;20049;-71
2023/07/08 01:55:25;;;;;;;5.75;4.68;;;16.30;99.90;;;;;;5014427;28;20081;-70
2023/07/08 01:57:52;;;;;;;;;;;16.20;99.90;;;;;;5014953;28;20085;-70
2023/07/08 02:00:17;;;;;;;4.82;4.32;;;16.20;99.90;;;;;;5014480;28;19925;-70
2023/07/08 02:02:43;;;;;;;7.03;5.00;;;16.10;99.90;;;;;;5014588;28;20060;-70
2023/07/08 02:05:09;;;;;;;5.95;4.15;;;16.10;99.90;;;;;;4997640;28;20046;-71
2023/07/08 02:07:34;;;;;;;11.15;5.18;;;16.10;99.90;;;;;;5014448;28;20041;-71
2023/07/08 02:10:00;;;;;;;5.22;4.70;;;16.10;99.90;;;;;;5014337;28;20050;-71
2023/07/08 02:12:26;;;;;;;6.07;4.40;;;16.10;99.90;;;;;;5014350;28;20448;-71
2023/07/08 02:14:51;;;;;;;4.57;4.18;;;16.10;99.90;;;;;;5014059;28;20042;-70
2023/07/08 02:17:17;;;;;;;6.55;5.60;;;16.10;99.90;;;;;;4996590;28;20132;-70
2023/07/08 02:19:43;;;;;;;7.55;5.18;;;16.00;99.90;;;;;;4980656;28;20052;-70
2023/07/08 02:22:09;;;;;;;5.75;5.03;;;16.00;99.90;;;;;;5013896;28;20046;-70
2023/07/08 02:24:35;;;;;;;6.57;4.72;;;16.00;99.90;;;;;;5014430;28;20048;-70
2023/07/08 02:27:01;;;;;;;6.18;4.68;;;15.90;99.90;;;;;;5013786;28;20145;-71
2023/07/08 02:29:27;;;;;;;9.02;4.78;;;15.90;99.90;;;;;;5013860;28;20104;-70
2023/07/08 02:31:53;;;;;;;6.07;4.15;;;15.90;99.90;;;;;;5013637;28;20089;-70
2023/07/08 02:34:18;;;;;;;5.70;4.72;;;15.90;99.90;;;;;;5014085;28;20042;-70
2023/07/08 02:36:44;;;;;;;6.45;4.53;;;15.80;99.90;;;;;;5013617;28;20105;-70
2023/07/08 02:39:10;;;;;;;7.30;5.32;;;15.80;99.90;;;;;;5014110;28;20050;-71
2023/07/08 02:41:37;;;;;;;5.20;3.97;;;15.70;99.90;;;;;;5013995;28;20061;-71
2023/07/08 02:44:02;;;;;;;7.13;4.65;;;15.70;99.90;;;;;;5014020;28;20050;-71
2023/07/08 02:46:28;;;;;;;9.20;4.90;;;15.70;99.90;;;;;;5013522;28;20395;-71
2023/07/08 02:48:54;;;;;;;6.75;5.30;;;15.70;99.90;;;;;;5013759;28;20050;-70
2023/07/08 02:51:19;;;;;;;5.90;4.72;;;15.70;99.90;;;;;;5013387;28;20050;-70
2023/07/08 02:53:45;;;;;;;9.85;5.97;;;15.70;99.90;;;;;;5013226;28;20148;-71
2023/07/08 02:56:11;;;;;;;5.95;5.00;;;15.60;99.90;;;;;;5013367;28;20054;-70
2023/07/08 02:58:36;;;;;;;7.20;5.38;;;15.70;99.90;;;;;;4995469;28;20065;-71
2023/07/08 03:01:02;;;;;;;6.40;5.45;;;15.60;99.90;;;;;;5013300;28;20527;-70
2023/07/08 03:03:29;;;;;;;5.05;4.35;;;15.60;99.90;;;;;;5013412;28;20042;-70
2023/07/08 03:06:00;;;;;;;5.40;4.72;;;15.60;99.90;;;;;;4995892;28;20150;-70
2023/07/08 03:08:26;;;;;;;8.23;5.10;;;15.60;99.90;;;;;;5013179;28;20056;-71
2023/07/08 03:10:58;;;;;;;8.82;6.25;;;15.60;99.90;;;;;;5012318;28;20124;-71
2023/07/08 03:13:24;;;;;;;8.85;6.53;;;15.60;99.90;;;;;;5013051;28;20069;-70
2023/07/08 03:15:50;;;;;;;12.25;6.03;;;15.50;99.90;;;;;;5013064;28;20042;-71
2023/07/08 03:18:17;;;;;;;6.18;5.40;;;15.50;99.90;;;;;;4995550;28;20046;-70
2023/07/08 03:20:46;;;;;;;7.65;5.65;;;15.50;99.90;;;;;;4995844;28;20058;-70
2023/07/08 03:23:12;;;;;;;8.18;4.55;;;15.50;99.90;;;;;;4995462;28;20041;-70
2023/07/08 03:25:38;;;;;;;7.57;5.47;;;15.50;99.90;;;;;;5013120;28;20120;-70
2023/07/08 03:28:07;;;;;;;8.60;5.38;;;15.50;99.90;;;;;;5012898;28;20045;-71
2023/07/08 03:30:34;;;;;;;5.00;4.50;;;15.50;99.90;;;;;;5011713;28;20533;-70
2023/07/08 03:33:00;;;;;;;7.93;7.07;;;15.50;99.90;;;;;;5013066;28;20105;-71
2023/07/08 03:35:26;;;;;;;6.43;5.72;;;15.50;99.90;;;;;;5012727;28;20081;-71
2023/07/08 03:37:52;;;;;;;7.60;4.97;;;15.50;99.90;;;;;;4995291;28;20056;-70
2023/07/08 03:40:18;;;;;;;7.90;5.45;;;15.40;99.90;;;;;;5012942;28;20057;-70
2023/07/08 03:42:43;;;;;;;7.47;6.15;;;15.40;99.90;;;;;;4995094;28;20042;-70
2023/07/08 03:45:10;;;;;;;7.07;5.88;;;15.40;99.90;;;;;;5012734;28;20042;-70
2023/07/08 03:47:36;;;;;;;7.95;6.43;;;15.40;99.90;;;;;;4995096;28;20048;-71
2023/07/08 03:50:02;;;;;;;6.32;5.72;;;14.70;99.90;;;;;;5013135;28;20120;-70
2023/07/08 03:52:28;;;;;;;7.05;6.20;;;15.50;99.90;;;;;;5014609;28;20516;-70
2023/07/08 03:54:53;;;;;;;9.48;6.82;;;15.50;99.90;;;;;;5019111;28;20042;-71
2023/07/08 03:57:19;;;;;;;6.30;5.63;;;15.50;99.90;;;;;;5019058;28;20104;-70
2023/07/08 03:59:45;;;;;;;6.65;5.90;;;15.50;99.90;;;;;;5019685;28;20435;-70
2023/07/08 04:02:11;;;;;;;9.95;6.65;;;15.50;99.90;;;;;;5019035;28;20132;-70
2023/07/08 04:04:37;;;;;;;8.00;6.60;;;15.50;99.90;;;;;;5019140;28;20129;-71
2023/07/08 04:07:07;;;;;;;7.07;6.32;;;15.50;99.90;;;;;;5002282;28;20462;-70
2023/07/08 04:09:33;;;;;;;8.75;6.20;;;15.60;99.90;;;;;;5019147;28;20053;-71
2023/07/08 04:11:59;;;;;;;10.38;7.72;;;15.60;99.90;;;;;;5019822;28;20111;-70
2023/07/08 04:14:25;;;;;;;9.70;8.23;;;15.60;99.90;;;;;;5001268;28;20419;-70
2023/07/08 04:16:56;;;;;;;6.30;5.70;;;15.70;99.90;;;;;;5019109;28;20111;-71
2023/07/08 04:19:23;;;;;;;7.20;6.47;;;15.70;99.90;;;;;;5019303;28;20502;-70
2023/07/08 04:21:49;;;;;;;7.68;6.45;;;15.70;99.90;;;;;;5018887;28;20581;-71
2023/07/08 04:24:17;;;;;;;8.35;7.18;;;15.70;99.90;;;;;;5017679;28;20077;-70
2023/07/08 04:26:46;;;;;;;8.73;6.78;;;15.80;99.90;;;;;;5018698;28;20085;-70
2023/07/08 04:29:17;;;;;;;7.43;6.63;;;15.80;99.90;;;;;;5018778;28;20124;-70
2023/07/08 04:31:43;;;;;;;8.68;7.72;;;15.90;99.90;;;;;;5018857;28;20050;-71
2023/07/08 04:34:09;;;;;;;15.80;7.68;;;15.90;99.90;;;;;;5001277;28;20092;-71
2023/07/08 04:36:35;;;;;;;7.95;6.60;;;15.90;99.90;;;;;;5018804;28;20048;-71
2023/07/08 04:39:04;;;;;;;7.85;6.53;;;16.00;99.90;;;;;;5018786;28;20050;-70
2023/07/08 04:41:30;;;;;;;7.97;7.15;;;16.00;99.90;;;;;;5018922;28;20053;-70
2023/07/08 04:43:57;;;;;;;9.90;7.53;;;16.10;99.90;;;;;;5018907;28;20459;-71
2023/07/08 04:46:38;;;;;;;9.10;8.23;;;16.20;99.90;;;;;;5020131;28;20050;-71
2023/07/08 04:49:06;;;;;;;8.60;6.75;;;16.20;99.90;;;;;;5019828;28;20050;-70
2023/07/08 04:51:32;;;;;;;7.57;6.80;;;16.20;99.90;;;;;;5019731;28;20050;-71
2023/07/08 04:53:58;;;;;;;9.13;7.28;;;16.30;99.90;;;;;;5019288;28;20132;-71
2023/07/08 04:56:35;;;;;;;7.80;7.00;;;16.40;99.90;;;;;;5019235;28;20135;-71
2023/07/08 04:59:02;;;;;;;9.07;7.35;;;16.40;99.90;;;;;;5001536;28;20058;-71
2023/07/08 05:01:29;;;;;;;7.93;6.97;;;16.50;99.90;;;;;;5018303;28;20516;-71
2023/07/08 05:03:55;;;;;;;7.68;6.68;;;16.50;99.90;;;;;;5016642;28;20046;-71
2023/07/08 05:06:20;;;;;;;9.02;7.32;;;16.50;99.90;;;;;;5015856;28;20045;-71
2023/07/08 05:08:46;;;;;;;9.10;7.05;;;16.60;99.90;;;;;;5015179;28;20081;-71
2023/07/08 05:11:12;;;;;;;6.90;6.30;;;16.70;99.90;;;;;;5015236;28;20073;-71
2023/07/08 05:13:37;;;;;;;7.07;6.43;;;16.70;99.90;;;;;;5015589;28;20474;-71
2023/07/08 05:16:03;;;;;;;8.05;7.18;;;16.80;99.90;;;;;;5015665;28;20088;-70
2023/07/08 05:18:29;;;;;;;10.00;6.90;;;16.90;99.90;;;;;;5015489;28;20057;-70
2023/07/08 05:20:56;;;;;;;9.73;7.53;;;16.90;99.90;;;;;;5015254;28;20103;-69
2023/07/08 05:23:21;;;;;;;9.75;6.90;;;17.00;99.90;;;;;;5015003;28;20054;-69
2023/07/08 05:25:47;;;;;;;8.70;7.53;;;17.10;99.90;;;;;;5015524;28;20056;-69
2023/07/08 05:28:13;;;;;;;7.85;6.82;;;17.20;99.90;;;;;;4997419;28;20046;-69
2023/07/08 05:30:42;;;;;;;9.77;7.15;;;17.20;99.90;;;;;;4997539;28;20467;-69
2023/07/08 05:33:09;;;;;;;7.40;6.28;;;17.40;99.90;;;;;;5014700;28;20470;-69
2023/07/08 05:35:34;;;;;;;10.35;6.75;;;17.40;99.90;;;;;;5014628;28;20169;-69
2023/07/08 05:38:01;;;;;;;8.98;6.68;;;17.50;99.90;;;;;;4997663;28;20087;-69
2023/07/08 05:40:27;;;;;;;10.40;6.80;;;17.70;99.90;;;;;;5014685;28;20107;-69
2023/07/08 05:42:53;;;;;;;8.80;6.18;;;17.80;99.90;;;;;;5014910;28;20038;-68
2023/07/08 05:45:18;;;;;;;7.53;6.82;;;17.90;99.90;;;;;;5014774;28;20489;-69
2023/07/08 05:47:44;;;;;;;9.23;6.82;;;18.00;99.90;;;;;;5015134;28;20383;-69
2023/07/08 05:50:10;;;;;;;8.15;6.00;;;18.10;99.90;;;;;;5014470;28;20107;-69
2023/07/08 05:52:35;;;;;;;10.05;6.28;;;18.30;99.90;;;;;;5014417;28;20452;-69
2023/07/08 05:55:01;;;;;;;6.65;6.05;;;18.40;99.90;;;;;;5014342;28;20052;-69
2023/07/08 05:57:27;;;;;;;7.30;5.93;;;18.50;99.90;;;;;;5014832;28;20058;-68
2023/07/08 05:59:53;;;;;;;8.30;5.90;;;18.70;99.90;;;;;;5014230;28;20062;-69
2023/07/08 06:02:21;;;;;;;6.60;5.68;;;18.80;99.90;;;;;;5014642;28;20112;-69
2023/07/08 06:04:47;;;;;;;7.35;6.05;;;18.90;99.90;;;;;;5014059;28;20050;-69
2023/07/08 06:07:12;;;;;;;7.65;5.93;;;19.10;99.90;;;;;;5014193;28;20096;-68
2023/07/08 06:09:38;;;;;;;7.93;5.53;;;19.20;99.90;;;;;;5014100;28;20124;-69
2023/07/08 06:12:04;;;;;;;6.00;5.40;;;19.40;99.90;;;;;;5014164;28;20128;-69
2023/07/08 06:14:30;;;;;;;7.28;5.40;;;19.50;99.90;;;;;;5013884;28;20045;-69
2023/07/08 06:16:58;;;;;;;10.98;5.45;;;19.60;99.90;;;;;;5013533;28;20052;-69
2023/07/08 06:19:23;;;;;;;6.15;5.13;;;19.80;99.90;;;;;;5014190;28;20049;-69
2023/07/08 06:21:49;;;;;;;9.10;5.10;;;20.00;99.90;;;;;;5014284;28;20463;-69
2023/07/08 06:24:15;;;;;;;5.80;5.22;;;20.30;99.90;;;;;;5013747;28;20077;-69
2023/07/08 06:26:41;;;;;;;7.55;5.40;;;20.70;99.90;;;;;;5014060;28;20100;-69
2023/07/08 06:29:06;;;;;;;5.90;4.47;;;21.70;99.90;;;;;;5013975;28;20402;-69
2023/07/08 06:31:32;;;;;;;5.50;5.00;;;23.00;99.90;;;;;;5013761;28;20081;-69
2023/07/08 06:33:58;;;;;;;6.43;4.82;;;24.00;98.30;;;;;;5013443;28;20046;-69
2023/07/08 06:36:24;;;;;;;5.57;4.47;;;24.90;96.90;;;;;;5014179;28;20045;-69
2023/07/08 06:38:49;;;;;;;5.40;4.38;;;25.60;95.50;;;;;;5013472;28;20479;-70
2023/07/08 06:41:15;;;;;;;5.00;4.40;;;26.20;94.80;;;;;;5013508;28;20048;-70
2023/07/08 06:43:41;;;;;;;5.03;3.70;;;26.60;94.50;;;;;;5014108;28;20101;-69
2023/07/08 06:46:06;;;;;;;7.68;4.68;;;26.80;94.00;;;;;;5013497;28;20046;-69
2023/07/08 06:48:32;;;;;;;5.70;3.90;;;27.00;93.10;;;;;;5013307;28;20469;-70
2023/07/08 06:50:58;;;;;;;4.38;3.97;;;27.20;92.50;;;;;;4996561;28;20073;-70
2023/07/08 06:53:24;;;;;;;5.70;3.78;;;27.50;91.90;;;;;;5013214;28;20093;-69
2023/07/08 06:55:50;;;;;;;5.63;4.38;;;27.80;91.40;;;;;;5013338;28;20096;-70
2023/07/08 06:58:16;;;;;;;4.45;3.53;;;28.00;91.20;;;;;;5012991;28;20049;-70
2023/07/08 07:00:43;;;;;;;5.60;4.20;;;28.40;90.90;;;;;;5013929;28;20057;-69
2023/07/08 07:03:09;;;;;;;5.15;4.07;;;28.50;90.40;;;;;;5012698;28;20041;-70
2023/07/08 07:05:34;;;;;;;7.10;4.63;;;28.60;90.10;;;;;;5013246;28;20041;-70
2023/07/08 07:08:01;;;;;;;5.50;3.75;;;28.90;90.00;;;;;;5013348;28;20253;-69
2023/07/08 07:10:27;;;;;;;4.65;3.58;;;28.70;89.30;;;;;;5013146;28;20064;-70
2023/07/08 07:12:52;;;;;;;5.53;4.13;;;28.70;89.10;;;;;;5013101;28;20050;-69
2023/07/08 07:15:18;;;;;;;4.25;3.65;;;28.90;89.40;;;;;;5013734;28;20554;-68
2023/07/08 07:17:44;;;;;;;5.82;3.78;;;29.40;89.30;;;;;;5012976;28;20045;-68
2023/07/08 07:20:11;;;;;;;4.85;3.78;;;29.70;87.70;;;;;;5013148;28;20057;-68
2023/07/08 07:22:36;;;;;;;6.10;3.63;;;29.90;86.50;;;;;;5011537;28;20050;-68
2023/07/08 07:25:03;;;;;;;5.10;3.83;;;30.20;86.20;;;;;;5013402;28;20081;-68
2023/07/08 07:27:28;;;;;;;4.07;3.58;;;30.00;86.00;;;;;;5012443;28;20045;-69
2023/07/08 07:29:54;;;;;;;4.60;3.67;;;30.00;86.30;;;;;;5013145;28;20050;-68
2023/07/08 07:32:23;;;;;;;6.15;3.42;;;30.20;86.60;;;;;;5012880;28;20045;-68
2023/07/08 07:34:50;;;;;;;4.55;4.13;;;30.70;86.30;;;;;;5012338;28;20444;-67
2023/07/08 07:37:18;;;;;;;4.18;3.65;;;30.90;85.10;;;;;;5012893;28;20073;-68
2023/07/08 07:39:44;;;;;;;5.03;3.35;;;31.00;84.90;;;;;;5012744;28;20479;-69
2023/07/08 07:42:11;;;;;;;5.05;3.70;;;31.00;84.40;;;;;;5012776;28;20052;-68
2023/07/08 07:44:39;;;;;;;5.63;3.38;;;31.10;84.10;;;;;;5012839;28;20053;-68
2023/07/08 07:47:06;;;;;;;4.60;3.42;;;31.10;83.10;;;;;;5013309;28;20054;-68
2023/07/08 07:49:31;;;;;;;4.50;3.97;;;31.00;83.30;;;;;;4995228;28;20060;-68
2023/07/08 07:51:57;;;;;;;5.68;3.60;;;31.30;83.20;;;;;;5012679;28;20410;-68
2023/07/08 07:54:23;;;;;;;5.38;3.80;;;31.10;82.90;;;;;;5012591;28;20038;-70
2023/07/08 07:56:49;;;;;;;6.50;3.53;;;31.30;81.30;;;;;;4995403;28;20052;-70
2023/07/08 07:59:14;;;;;;;4.88;3.75;;;31.40;82.00;;;;;;5013125;28;20465;-70
2023/07/08 08:01:41;;;;;;;5.55;3.53;;;31.70;80.90;;;;;;4995100;28;20089;-70
2023/07/08 08:04:09;;;;;;;5.15;3.42;;;31.50;80.60;;;;;;5012440;28;20125;-70
2023/07/08 08:06:35;;;;;;;5.47;3.63;;;31.70;80.90;;;;;;4995490;28;20057;-70
2023/07/08 08:09:02;;;;;;;5.72;3.80;;;32.00;81.40;;;;;;5012236;28;20054;-71
2023/07/08 08:11:28;;;;;;;3.50;3.20;;;32.10;79.40;;;;;;4994976;28;20056;-70
2023/07/08 08:13:53;;;;;;;6.43;3.50;;;32.20;79.70;;;;;;5012284;28;20041;-70
2023/07/08 08:16:20;;;;;;;4.00;3.33;;;32.40;80.20;;;;;;4994962;28;20037;-71
2023/07/08 08:18:46;;;;;;;4.72;3.17;;;32.50;79.90;;;;;;5012456;28;20045;-70
2023/07/08 08:21:12;;;;;;;4.70;3.60;;;32.50;80.20;;;;;;5012438;28;20052;-71
2023/07/08 08:23:38;;;;;;;4.65;3.03;;;32.60;78.10;;;;;;5011286;28;20061;-70
2023/07/08 08:26:03;;;;;;;4.28;2.95;;;32.70;77.80;;;;;;5012371;28;20045;-70
2023/07/08 08:28:29;;;;;;;4.72;3.17;;;32.80;77.10;;;;;;5012894;28;20118;-71
2023/07/08 08:30:55;;;;;;;5.97;3.25;;;32.90;76.80;;;;;;4994461;28;20088;-70
2023/07/08 08:33:21;;;;;;;5.18;3.60;;;32.80;76.00;;;;;;5012725;28;20042;-72
2023/07/08 08:35:47;;;;;;;3.90;3.40;;;33.00;76.50;;;;;;5012191;28;20112;-72
2023/07/08 08:38:13;;;;;;;4.30;3.20;;;33.00;76.60;;;;;;4995296;28;20132;-71
2023/07/08 08:40:42;;;;;;;4.28;3.28;;;32.80;76.20;;;;;;5016307;28;20069;-71
2023/07/08 08:43:27;;;;;;;5.65;3.08;;;32.90;75.50;;;;;;5016001;28;20060;-71
2023/07/08 08:46:29;;;;;;;4.28;3.65;;;32.80;75.20;;;;;;5015885;28;20130;-70
2023/07/08 08:49:21;;;;;;;4.55;3.40;;;32.90;75.80;;;;;;4998934;28;20058;-71
2023/07/08 08:51:48;;;;;;;4.63;2.97;;;33.00;75.40;;;;;;5015845;28;20061;-71
2023/07/08 08:54:14;;;;;;;3.58;3.13;;;33.00;75.50;;;;;;5015254;28;20100;-71
2023/07/08 08:56:43;;;;;;;3.70;3.22;;;33.20;75.70;;;;;;5015420;28;20054;-71
2023/07/08 08:59:31;;;;;;;3.40;3.10;;;33.30;75.60;;;;;;5015763;28;20053;-71
2023/07/08 09:02:00;;;;;;;3.67;3.28;;;33.30;74.00;;;;;;5015651;28;20137;-71
2023/07/08 09:04:32;;;;;;;3.45;2.92;;;33.30;75.00;;;;;;5015976;28;20046;-71
2023/07/08 09:07:06;;;;;;;4.45;3.40;;;33.40;74.10;;;;;;5016128;28;20084;-71
2023/07/08 09:09:49;;;;;;;4.30;3.20;;;33.30;73.60;;;;;;5015433;28;20095;-71
2023/07/08 09:12:23;;;;;;;3.47;3.17;;;33.40;73.40;;;;;;5015298;28;20049;-71
2023/07/08 09:14:50;;;;;;;5.47;3.60;;;33.40;73.60;;;;;;4997945;28;20046;-71
2023/07/08 09:17:34;;;;;;;5.03;3.42;;;33.30;73.30;;;;;;5015262;28;20050;-70
2023/07/08 09:20:03;;;;;;;3.80;2.78;;;33.70;73.60;;;;;;5015292;28;20077;-71
2023/07/08 09:23:00;;;;;;;4.07;3.13;;;33.90;73.10;;;;;;4997751;28;20046;-70
2023/07/08 09:25:37;;;;;;;3.63;3.33;;;33.90;72.90;;;;;;4997954;28;20489;-70
2023/07/08 09:28:02;;;;;;;3.75;3.08;;;33.90;73.20;;;;;;5015056;28;20057;-71
2023/07/08 09:30:31;;;;;;;3.65;2.97;;;34.00;73.50;;;;;;4997622;28;20120;-72
2023/07/08 09:33:01;;;;;;;3.30;3.00;;;33.90;72.60;;;;;;5015070;28;20042;-71
2023/07/08 09:35:37;;;;;;;5.75;3.70;;;33.70;72.60;;;;;;5015553;28;20135;-70
2023/07/08 09:38:08;;;;;;;5.45;3.83;;;33.70;72.50;;;;;;5015018;28;20050;-72
2023/07/08 09:40:34;;;;;;;3.83;3.53;;;33.60;72.60;;;;;;5014982;28;20120;-72
2023/07/08 09:43:13;;;;;;;4.20;2.90;;;33.40;72.70;;;;;;5014837;28;20096;-71
2023/07/08 09:45:45;;;;;;;5.03;3.30;;;33.40;72.50;;;;;;5014695;28;20042;-71
2023/07/08 09:48:21;;;;;;;6.32;3.03;;;33.40;73.40;;;;;;5014892;28;20057;-72
2023/07/08 09:50:52;;;;;;;5.03;4.53;;;33.30;72.50;;;;;;5014181;28;20057;-71
2023/07/08 09:53:19;;;;;;;3.60;2.57;;;33.30;72.70;;;;;;5014652;28;20125;-71
2023/07/08 09:55:45;;;;;;;4.63;3.47;;;33.30;73.80;;;;;;5014504;28;20308;-72
2023/07/08 09:58:24;;;;;;;13.05;4.05;;;33.60;74.00;;;;;;5014455;28;20053;-71
2023/07/08 10:00:59;;;;;;;4.55;3.42;;;33.40;72.30;;;;;;5014533;28;20054;-72
2023/07/08 10:03:31;;;;;;;5.82;3.65;;;33.40;73.80;;;;;;5015972;28;20054;-72
2023/07/08 10:06:02;;;;;;;4.13;3.40;;;33.30;73.50;;;;;;5015203;28;20173;-71
2023/07/08 10:08:41;;;;;;;5.40;3.33;;;33.20;73.00;;;;;;5015068;28;20054;-71
2023/07/08 10:11:10;;;;;;;4.57;3.50;;;33.20;73.10;;;;;;5014842;28;20042;-71
2023/07/08 10:13:44;;;;;;;6.85;3.35;;;33.20;73.00;;;;;;5014415;28;20052;-72
2023/07/08 10:16:09;;;;;;;4.05;3.38;;;33.30;72.90;;;;;;5014671;28;20049;-72
2023/07/08 10:18:35;;;;;;;4.53;3.50;;;33.20;73.00;;;;;;5014527;28;20056;-71
2023/07/08 10:21:09;;;;;;;4.55;3.50;;;33.30;73.20;;;;;;5013990;28;20053;-71
2023/07/08 10:23:44;;;;;;;3.35;3.05;;;33.60;73.20;;;;;;4996298;28;20053;-69
2023/07/08 10:26:27;;;;;;;3.97;3.28;;;33.40;73.00;;;;;;5013933;28;20135;-78
2023/07/08 10:29:17;;;;;;;4.15;3.25;;;33.40;72.80;;;;;;5014069;28;20137;-79
2023/07/08 10:32:06;;;;;;;3.65;3.30;;;33.30;73.10;;;;;;5013319;28;20503;-71
2023/07/08 10:35:08;;;;;;;5.30;3.15;;;33.20;72.40;;;;;;5013914;28;20045;-72
2023/07/08 10:37:36;;;;;;;5.07;3.25;;;33.30;72.60;;;;;;4995465;28;20062;-72
2023/07/08 10:40:14;;;;;;;6.43;3.53;;;33.40;72.80;;;;;;5014205;28;20116;-72
2023/07/08 10:43:11;;;;;;;3.15;2.90;;;33.40;72.90;;;;;;5013698;28;20042;-72
2023/07/08 10:46:04;;;;;;;3.33;3.03;;;33.60;72.70;;;;;;4995941;28;20121;-71
2023/07/08 10:48:48;;;;;;;3.63;3.33;;;33.60;72.90;;;;;;5013393;28;20046;-72
2023/07/08 10:51:23;;;;;;;4.95;3.35;;;33.10;73.10;;;;;;4996096;28;20076;-72
2023/07/08 10:54:00;;;;;;;3.92;3.53;;;33.20;72.00;;;;;;5013730;28;20107;-73
2023/07/08 10:56:38;;;;;;;5.07;3.40;;;33.40;72.00;;;;;;4996253;28;20058;-71
2023/07/08 10:59:49;;;;;;;6.10;3.47;;;33.30;72.20;;;;;;5012988;28;20140;-72
2023/07/08 11:02:53;;;;;;;4.00;3.53;;;33.40;73.20;;;;;;5003017;28;20085;-72
2023/07/08 11:05:43;;;;;;;5.65;3.85;;;33.20;72.50;;;;;;5012966;28;20285;-71
2023/07/08 11:08:25;;;;;;;4.28;3.58;;;33.00;72.60;;;;;;5013095;28;20053;-72
2023/07/08 11:10:59;;;;;;;;;;;32.80;72.20;;;;;;5013538;28;20505;-72
2023/07/08 11:13:29;;;;;;;3.97;3.50;;;32.50;73.20;;;;;;5013282;28;19944;-71
2023/07/08 11:16:01;;;;;;;5.45;3.30;;;32.60;72.90;;;;;;5012822;28;20041;-72
2023/07/08 11:18:38;;;;;;;5.35;4.00;;;32.60;73.10;;;;;;5013407;28;20116;-71
2023/07/08 11:21:14;;;;;;;3.65;3.35;;;32.70;73.10;;;;;;5013026;28;20053;-71
2023/07/08 11:23:56;;;;;;;3.97;3.08;;;32.60;72.70;;;;;;5013292;28;20072;-72
2023/07/08 11:26:28;;;;;;;4.82;3.60;;;32.60;73.30;;;;;;4996081;28;20050;-71
2023/07/08 11:28:57;;;;;;;5.68;4.10;;;32.60;73.00;;;;;;5012897;28;20060;-71
2023/07/08 11:31:25;;;;;;;6.75;4.00;;;32.60;72.90;;;;;;5012885;28;20053;-72
2023/07/08 11:33:53;;;;;;;6.45;4.28;;;32.60;72.20;;;;;;5012448;28;20104;-72
2023/07/08 11:36:21;;;;;;;4.85;4.40;;;32.60;72.70;;;;;;5012927;28;20056;-72
2023/07/08 11:38:55;;;;;;;5.60;4.43;;;32.50;72.80;;;;;;5013206;28;20069;-71
2023/07/08 11:41:25;;;;;;;4.35;3.90;;;32.50;72.90;;;;;;5012659;28;20463;-71
2023/07/08 11:43:57;;;;;;;4.07;3.58;;;32.60;72.70;;;;;;5012447;28;20072;-70
2023/07/08 11:46:31;;;;;;;4.88;3.45;;;32.60;73.30;;;;;;5012478;28;20078;-72
2023/07/08 11:49:02;;;;;;;4.88;4.13;;;32.50;72.40;;;;;;4979477;28;20045;-71
2023/07/08 11:51:36;;;;;;;4.50;4.10;;;32.50;72.00;;;;;;4995531;28;20053;-71
2023/07/08 11:54:11;;;;;;;6.68;4.03;;;32.40;72.20;;;;;;5012282;28;20095;-71
2023/07/08 11:56:59;;;;;;;6.13;3.85;;;32.30;71.70;;;;;;4995634;28;20100;-72
2023/07/08 11:59:46;;;;;;;5.88;4.57;;;32.30;72.20;;;;;;5012069;28;20066;-71
2023/07/08 12:02:16;;;;;;;6.30;4.15;;;32.20;70.80;;;;;;5011678;28;20050;-71
2023/07/08 12:05:11;;;;;;;4.38;3.88;;;32.20;71.30;;;;;;5012479;28;20061;-71
2023/07/08 12:07:43;;;;;;;5.47;4.28;;;32.30;72.70;;;;;;5012084;28;20058;-71
2023/07/08 12:10:15;;;;;;;7.00;3.77;;;32.30;72.10;;;;;;5012609;28;20049;-71
2023/07/08 12:12:43;;;;;;;5.45;3.78;;;32.30;72.00;;;;;;5012089;28;20081;-70
2023/07/08 12:15:19;;;;;;;5.18;4.63;;;32.40;71.50;;;;;;5015395;28;20121;-70
2023/07/08 12:17:45;;;;;;;4.50;4.10;;;32.40;71.10;;;;;;5016595;28;20045;-71
2023/07/08 12:20:33;;;;;;;4.50;4.10;;;32.50;70.80;;;;;;4998613;28;20058;-71
2023/07/08 12:23:00;;;;;;;5.50;3.88;;;32.60;71.10;;;;;;5016190;28;20045;-71
2023/07/08 12:25:32;;;;;;;4.57;4.00;;;32.60;70.80;;;;;;5016181;28;20050;-71
2023/07/08 12:27:58;;;;;;;6.00;4.30;;;32.50;70.60;;;;;;5016251;28;20455;-71
2023/07/08 12:30:27;;;;;;;4.55;4.10;;;32.60;70.60;;;;;;4998806;28;20052;-72
2023/07/08 12:32:55;;;;;;;6.20;3.85;;;32.60;70.80;;;;;;5016181;28;20504;-70
2023/07/08 12:35:27;;;;;;;4.32;3.72;;;32.60;70.60;;;;;;4998603;28;20085;-73
2023/07/08 12:38:00;;;;;;;4.40;4.00;;;32.70;70.00;;;;;;5015967;28;20458;-71
2023/07/08 12:40:27;;;;;;;4.70;4.30;;;32.80;69.90;;;;;;5016229;28;20052;-72
2023/07/08 12:42:54;;;;;;;6.65;4.00;;;32.90;70.70;;;;;;5015932;28;20150;-71
2023/07/08 12:45:22;;;;;;;4.40;3.58;;;33.00;71.10;;;;;;5015473;28;20046;-71
2023/07/08 12:47:49;;;;;;;9.75;4.18;;;33.00;69.60;;;;;;5015679;28;20076;-71
2023/07/08 12:50:15;;;;;;;5.70;3.70;;;33.00;69.20;;;;;;5015493;28;20041;-73
2023/07/08 12:52:44;;;;;;;3.90;3.45;;;32.90;69.60;;;;;;5015932;28;20053;-73
2023/07/08 12:55:11;;;;;;;4.75;4.25;;;33.00;69.20;;;;;;5015355;28;20048;-72
2023/07/08 12:57:39;;;;;;;5.40;3.75;;;33.00;68.90;;;;;;5016104;28;20072;-73
2023/07/08 13:00:10;;;;;;;5.68;4.05;;;33.10;69.70;;;;;;5015857;28;20076;-73